Time;durP1;ratioP1;P1;durP2;ratioP2;P2;SDS_P1;SDS_P2;PMS_P1;PMS_P2;Temp;Humidity;BMP_temperature;BMP_pressure;BME280_temperature;BME280_humidity;BME280_pressure;Samples;Min_cycle;Max_cycle;Signal;HPM_P1;HPM_P2
2022/12/18 00:01:34;;;;;;;;;;;;;;;-0.44;100.00;100851.94;5117542;27;19915;-79
2022/12/18 00:04:01;;;;;;;;;;;;;;;-0.42;100.00;100850.16;5115210;27;19923;-76
2022/12/18 00:06:27;;;;;;;;;;;;;;;-0.38;100.00;100860.44;5131304;27;19919;-79
2022/12/18 00:08:53;;;;;;;;;;;;;;;-0.37;100.00;100856.97;5115553;27;20008;-77
2022/12/18 00:11:19;;;;;;;;;;;;;;;-0.33;100.00;100863.75;5115429;28;19970;-79
2022/12/18 00:13:45;;;;;;;;;;;;;;;-0.30;100.00;100863.69;5113889;28;19920;-79
2022/12/18 00:16:12;;;;;;;;;;;;;;;-0.30;100.00;100858.50;5148215;27;19938;-79
2022/12/18 00:18:37;;;;;;;;;;;;;;;-0.32;100.00;100862.88;5115227;28;19919;-79
2022/12/18 00:21:05;;;;;;;;;;;;;;;-0.31;100.00;100861.97;5115482;28;19968;-79
2022/12/18 00:23:31;;;;;;;;;;;;;;;-0.32;100.00;100865.47;5115634;28;19966;-78
2022/12/18 00:26:00;;;;;;;;;;;;;;;-0.32;100.00;100881.03;5148575;27;19947;-79
2022/12/18 00:28:25;;;;;;;;;;;;;;;-0.30;100.00;100885.28;5115066;28;19920;-78
2022/12/18 00:30:51;;;;;;;;;;;;;;;-0.30;100.00;100889.63;5115260;28;19933;-79
2022/12/18 00:33:17;;;;;;;;;;;;;;;-0.32;100.00;100892.25;5114357;27;20290;-78
2022/12/18 00:35:42;;;;;;;;;;;;;;;-0.30;100.00;100894.81;5115015;28;19927;-78
2022/12/18 00:38:08;;;;;;;;;;;;;;;-0.34;100.00;100908.72;5148044;27;19941;-77
2022/12/18 00:40:34;;;;;;;;;;;;;;;-0.34;100.00;100899.22;5115409;28;19915;-78
2022/12/18 00:42:59;;;;;;;;;;;;;;;-0.37;100.00;100888.06;5114965;28;19934;-79
2022/12/18 00:45:29;;;;;;;;;;;;;;;-0.35;100.00;100896.69;5114401;27;19927;-78
2022/12/18 00:47:55;;;;;;;;;;;;;;;-0.31;100.00;100913.84;5114779;28;20367;-78
2022/12/18 00:50:21;;;;;;;;;;;;;;;-0.27;100.00;100910.28;5114552;28;19941;-79
2022/12/18 00:52:47;;;;;;;;;;;;;;;-0.25;100.00;100913.69;5114888;27;20412;-78
2022/12/18 00:55:13;;;;;;;;;;;;;;;-0.27;100.00;100921.50;5114762;28;19968;-79
2022/12/18 00:57:38;;;;;;;;;;;;;;;-0.22;100.00;100916.19;5114861;28;19916;-79
2022/12/18 01:00:05;;;;;;;;;;;;;;;-0.24;100.00;100925.78;5114592;28;19915;-78
2022/12/18 01:02:31;;;;;;;;;;;;;;;-0.22;100.00;100929.16;5113069;28;19916;-78
2022/12/18 01:04:56;;;;;;;;;;;;;;;-0.21;100.00;100936.03;5114119;28;19915;-79
2022/12/18 01:07:22;;;;;;;;;;;;;;;-0.19;100.00;100939.47;5114623;27;19923;-79
2022/12/18 01:09:47;;;;;;;;;;;;;;;-0.18;100.00;100946.34;5115102;28;19962;-79
2022/12/18 01:12:12;;;;;;;;;;;;;;;-0.16;100.00;100949.75;5114512;28;19934;-78
2022/12/18 01:14:38;;;;;;;;;;;;;;;-0.16;100.00;100944.56;5118193;28;20014;-79
2022/12/18 01:17:04;;;;;;;;;;;;;;;-0.17;100.00;100953.22;5119772;28;19919;-78
2022/12/18 01:19:32;;;;;;;;;;;;;;;-0.14;100.00;100953.16;5114609;28;19922;-78
2022/12/18 01:21:57;;;;;;;;;;;;;;;-0.12;100.00;100959.97;5114411;28;19915;-78
2022/12/18 01:24:23;;;;;;;;;;;;;;;-0.10;100.00;100959.94;5113564;28;19916;-78
2022/12/18 01:26:48;;;;;;;;;;;;;;;-0.14;100.00;100963.53;5114493;28;19916;-76
2022/12/18 01:29:14;;;;;;;;;;;;;;;-0.17;100.00;100958.41;5113662;28;19922;-78
2022/12/18 01:31:39;;;;;;;;;;;;;;;-0.13;100.00;100965.25;5113808;27;19922;-79
2022/12/18 01:34:06;;;;;;;;;;;;;;;-0.14;100.00;100960.94;5113074;28;19919;-79
2022/12/18 01:36:34;;;;;;;;;;;;;;;-0.16;100.00;100960.97;5113787;28;19990;-79
2022/12/18 01:39:00;;;;;;;;;;;;;;;-0.14;100.00;100963.53;5146771;27;19916;-80
2022/12/18 01:42:01;;;;;;;;;;;;;;;-0.13;100.00;100965.25;5113844;28;19919;-79
2022/12/18 01:44:35;;;;;;;;;;;;;;;-0.12;100.00;100977.31;5112981;28;20295;-78
2022/12/18 01:47:00;;;;;;;;;;;;;;;-0.04;100.00;100980.53;5110054;28;19916;-79
2022/12/18 01:49:26;;;;;;;;;;;;;;;-0.03;100.00;100984.84;5113001;28;19915;-79
2022/12/18 01:51:51;;;;;;;;;;;;;;;-0.02;100.00;100981.38;5113707;28;19916;-78
2022/12/18 01:54:17;;;;;;;;;;;;;;;0.00;100.00;100987.38;5115402;27;19979;-79
2022/12/18 01:56:42;;;;;;;;;;;;;;;0.02;100.00;100985.56;5118071;28;20725;-80
2022/12/18 01:59:09;;;;;;;;;;;;;;;0.06;100.00;100982.00;5111552;28;19939;-79
2022/12/18 02:01:37;;;;;;;;;;;;;;;0.10;100.00;100988.81;5112356;28;19924;-79
2022/12/18 02:04:22;;;;;;;;;;;;;;;0.11;100.00;100980.16;5117312;27;19923;-81
2022/12/18 02:06:50;;;;;;;;;;;;;;;0.15;100.00;100980.91;5121135;28;19922;-80
2022/12/18 02:09:24;;;;;;;;;;;;;;;0.17;100.00;100984.31;5134997;27;20359;-82
2022/12/18 02:11:49;;;;;;;;;;;;;;;0.20;100.00;100990.25;5117712;28;19923;-79
2022/12/18 02:14:14;;;;;;;;;;;;;;;0.24;100.00;100985.81;5103249;28;19924;-80
2022/12/18 02:16:58;;;;;;;;;;;;;;;0.29;100.00;100981.38;5122663;28;19927;-81
2022/12/18 02:19:42;;;;;;;;;;;;;;;0.30;100.00;100978.72;5111143;28;19920;-82
2022/12/18 02:22:26;;;;;;;;;;;;;;;0.33;100.00;100988.16;5118666;28;19920;-80
2022/12/18 02:24:58;;;;;;;;;;;;;;;0.35;100.00;100989.00;5113441;28;19919;-81
2022/12/18 02:27:24;;;;;;;;;;;;;;;0.37;100.00;100988.03;5114317;28;20387;-82
2022/12/18 02:29:51;;;;;;;;;;;;;;;0.39;100.00;100986.25;5118579;28;19941;-79
2022/12/18 02:32:19;;;;;;;;;;;;;;;0.40;100.00;100981.91;5135328;27;19920;-81
2022/12/18 02:34:45;;;;;;;;;;;;;;;0.43;100.00;100986.16;5119940;28;19923;-82
2022/12/18 02:37:16;;;;;;;;;;;;;;;0.43;100.00;100987.00;5118206;28;20018;-82
2022/12/18 02:39:43;;;;;;;;;;;;;;;0.44;100.00;100988.72;5153201;27;19915;-80
2022/12/18 02:42:11;;;;;;;;;;;;;;;0.46;100.00;100991.28;5115349;28;19966;-80
2022/12/18 02:44:44;;;;;;;;;;;;;;;0.46;100.00;100997.31;5114990;28;19922;-79
2022/12/18 02:47:14;;;;;;;;;;;;;;;0.45;100.00;101002.56;5114898;28;19916;-79
2022/12/18 02:49:43;;;;;;;;;;;;;;;0.44;100.00;101003.44;5117551;28;19912;-79
2022/12/18 02:52:20;;;;;;;;;;;;;;;0.45;100.00;100997.34;5133610;28;19923;-79
2022/12/18 02:54:55;;;;;;;;;;;;;;;0.44;100.00;100999.09;5132644;28;19916;-80
2022/12/18 02:57:28;;;;;;;;;;;;;;;0.45;100.00;101005.16;5114950;28;19916;-79
2022/12/18 03:00:01;;;;;;;;;;;;;;;0.46;100.00;101002.53;5112520;28;19912;-80
2022/12/18 03:02:37;;;;;;;;;;;;;;;0.47;100.00;101008.56;5114370;28;19927;-80
2022/12/18 03:05:13;;;;;;;;;;;;;;;0.50;100.00;101009.31;5116310;28;20485;-80
2022/12/18 03:07:43;;;;;;;;;;;;;;;0.53;100.00;101008.38;5119524;28;20375;-80
2022/12/18 03:10:13;;;;;;;;;;;;;;;0.48;100.00;101008.50;5123343;28;19911;-79
2022/12/18 03:12:41;;;;;;;;;;;;;;;0.52;100.00;101007.53;5120822;27;20275;-79
2022/12/18 03:15:10;;;;;;;;;;;;;;;0.59;100.00;101018.59;5119468;28;19956;-78
2022/12/18 03:17:36;;;;;;;;;;;;;;;0.61;100.00;101014.19;5156955;27;19961;-80
2022/12/18 03:20:05;;;;;;;;;;;;;;;0.61;100.00;101022.84;5127377;28;19915;-79
2022/12/18 03:22:33;;;;;;;;;;;;;;;0.61;100.00;101024.59;5162903;27;19916;-80
2022/12/18 03:25:00;;;;;;;;;;;;;;;0.60;100.00;101035.88;5128926;28;19922;-78
2022/12/18 03:27:28;;;;;;;;;;;;;;;0.52;100.00;101027.47;5145407;27;20264;-76
2022/12/18 03:30:07;;;;;;;;;;;;;;;0.47;100.00;101029.34;5130744;28;19915;-78
2022/12/18 03:32:39;;;;;;;;;;;;;;;0.44;100.00;101034.59;5130826;28;19916;-77
2022/12/18 03:35:05;;;;;;;;;;;;;;;0.44;100.00;101034.59;5129710;28;20379;-78
2022/12/18 03:37:34;;;;;;;;;;;;;;;0.47;100.00;101035.38;5132759;27;19915;-78
2022/12/18 03:40:00;;;;;;;;;;;;;;;0.51;100.00;101041.34;5116498;28;19915;-79
2022/12/18 03:42:53;;;;;;;;;;;;;;;0.52;100.00;101037.84;5114634;28;20309;-78
2022/12/18 03:45:26;;;;;;;;;;;;;;;0.63;100.00;101033.19;5112413;28;19916;-78
2022/12/18 03:47:54;;;;;;;;;;;;;;;0.67;100.00;101042.59;5108063;28;20314;-79
2022/12/18 03:50:37;;;;;;;;;;;;;;;0.68;100.00;101039.09;5111775;28;19926;-78
2022/12/18 03:53:23;;;;;;;;;;;;;;;0.70;100.00;101034.72;5115773;28;20367;-77
2022/12/18 03:55:50;;;;;;;;;;;;;;;0.68;100.00;101028.72;5114884;28;19931;-78
2022/12/18 03:58:19;;;;;;;;;;;;;;;0.70;100.00;101038.19;5115259;27;19915;-78
2022/12/18 04:00:56;;;;;;;;;;;;;;;0.80;100.00;101043.94;5145369;27;19969;-78
2022/12/18 04:03:22;;;;;;;;;;;;;;;0.83;100.00;101052.50;5114137;28;20348;-78
2022/12/18 04:05:51;;;;;;;129.75;66.90;;;;;;;0.85;100.00;101049.84;5113541;28;19976;-79
2022/12/18 04:08:20;;;;;;;128.68;67.30;;;;;;;0.89;100.00;101054.06;5110536;28;20028;-78
2022/12/18 04:10:58;;;;;;;125.90;64.50;;;;;;;0.91;100.00;101049.66;5127915;27;20030;-78
2022/12/18 04:13:33;;;;;;;132.85;66.22;;;;;;;0.93;100.00;101060.03;5113196;28;20039;-80
2022/12/18 04:16:01;;;;;;;131.82;66.35;;;;;;;0.93;100.00;101058.28;5114952;28;20124;-80
2022/12/18 04:18:27;;;;;;;126.80;67.78;;;;;;;0.93;100.00;101050.50;5112882;28;20042;-78
2022/12/18 04:20:53;;;;;;;140.45;73.15;;;;;;;0.95;100.00;101061.66;5113384;28;20035;-78
2022/12/18 04:23:19;;;;;;;134.45;71.20;;;;;;;0.96;100.00;101068.56;5108971;28;20056;-78
2022/12/18 04:25:47;;;;;;;132.20;69.30;;;;;;;0.97;100.00;101067.69;5113205;28;20160;-77
2022/12/18 04:28:17;;;;;;;135.25;71.25;;;;;;;1.00;100.00;101062.38;5096574;28;20391;-77
2022/12/18 04:30:43;;;;;;;132.45;68.35;;;;;;;1.00;100.00;101072.78;5114340;28;20026;-77
2022/12/18 04:33:13;;;;;;;123.03;67.13;;;;;;;0.97;100.00;101070.28;5113951;28;20027;-76
2022/12/18 04:35:41;;;;;;;135.75;67.88;;;;;;;0.98;100.00;101077.19;5114365;28;20468;-78
2022/12/18 04:38:10;;;;;;;128.32;66.47;;;;;;;0.94;100.00;101080.78;5114290;27;20063;-79
2022/12/18 04:40:37;;;;;;;125.57;63.10;;;;;;;0.89;100.00;101079.19;5130236;27;20472;-79
2022/12/18 04:43:08;;;;;;;128.13;61.23;;;;;;;0.84;100.00;101081.94;5112589;28;20056;-79
2022/12/18 04:45:33;;;;;;;;;;;;;;;0.81;100.00;101082.88;5113131;28;19920;-79
2022/12/18 04:47:59;;;;;;;;;;;;;;;0.87;100.00;101087.06;5112374;28;19920;-79
2022/12/18 04:50:25;;;;;;;;;;;;;;;0.85;100.00;101087.97;5094070;28;19927;-79
2022/12/18 04:52:50;;;;;;;;;;;;;;;0.83;100.00;101093.22;5113678;28;19998;-79
2022/12/18 04:55:16;;;;;;;;;;;;;;;0.81;100.00;101092.44;5114293;27;19968;-78
2022/12/18 04:57:42;;;;;;;;;;;;;;;0.78;100.00;101102.88;5114725;28;19924;-78
2022/12/18 05:00:07;;;;;;;;;;;;;;;0.81;100.00;101108.88;5114281;28;20538;-76
2022/12/18 05:02:33;;;;;;;;;;;;;;;0.83;100.00;101111.41;5112908;28;20355;-78
2022/12/18 05:04:58;;;;;;;;;;;;;;;0.81;100.00;101111.47;5113018;28;19961;-78
2022/12/18 05:07:24;;;;;;;;;;;;;;;0.80;100.00;101119.31;5114337;28;19915;-78
2022/12/18 05:09:49;;;;;;;;;;;;;;;0.80;100.00;101116.69;5110171;28;19915;-79
2022/12/18 05:12:15;;;;;;;;;;;;;;;0.73;100.00;101117.75;5113987;28;19926;-79
2022/12/18 05:14:40;;;;;;;;;;;;;;;0.73;100.00;101116.03;5114377;28;19961;-77
2022/12/18 05:17:06;;;;;;;;;;;;;;;0.68;100.00;101132.63;5112653;28;19923;-77
2022/12/18 05:19:31;;;;;;;;;;;;;;;0.60;100.00;101139.78;5114004;28;19915;-78
2022/12/18 05:21:57;;;;;;;;;;;;;;;0.56;100.00;101132.97;5114338;28;19955;-78
2022/12/18 05:24:22;;;;;;;;;;;;;;;0.58;100.00;101131.19;5113706;28;19919;-79
2022/12/18 05:26:48;;;;;;;;;;;;;;;0.61;100.00;101128.50;5112857;28;19916;-79
2022/12/18 05:29:13;;;;;;;;;;;;;;;0.61;100.00;101151.88;5113017;27;19919;-78
2022/12/18 05:31:39;;;;;;;;;;;;;;;0.66;100.00;101152.59;5114034;28;19922;-79
2022/12/18 05:34:04;;;;;;;;;;;;;;;0.62;100.00;101148.38;5113981;28;19916;-79
2022/12/18 05:36:30;;;;;;;;;;;;;;;0.60;100.00;101151.00;5114186;28;19949;-79
2022/12/18 05:38:55;;;;;;;;;;;;;;;0.64;100.00;101149.22;5114102;28;19927;-78
2022/12/18 05:41:21;;;;;;;;;;;;;;;0.68;100.00;101158.63;5111908;28;20013;-77
2022/12/18 05:43:47;;;;;;;;;;;;;;;0.75;100.00;101165.34;5113548;28;19916;-78
2022/12/18 05:46:13;;;;;;;;;;;;;;;0.66;100.00;101170.78;5113007;28;19925;-78
2022/12/18 05:48:39;;;;;;;;;;;;;;;0.71;100.00;101176.69;5112529;28;20006;-78
2022/12/18 05:51:06;;;;;;;;;;;;;;;0.70;100.00;101177.63;5113256;28;20018;-78
2022/12/18 05:53:32;;;;;;;;;;;;;;;0.65;100.00;101174.28;5113787;27;19916;-78
2022/12/18 05:55:59;;;;;;;;;;;;;;;0.68;100.00;101180.25;5112404;28;19969;-78
2022/12/18 05:58:25;;;;;;;;;;;;;;;0.70;100.00;101182.81;5147131;27;19920;-78
2022/12/18 06:00:50;;;;;;;;;;;;;;;0.73;100.00;101182.72;5113684;28;19941;-77
2022/12/18 06:03:16;;;;;;;;;;;;;;;0.74;100.00;101187.03;5112412;28;19922;-77
2022/12/18 06:05:42;;;;;;;;;;;;;;;0.79;100.00;101178.22;5113438;28;19915;-78
2022/12/18 06:08:08;;;;;;;;;;;;;;;0.80;100.00;101179.91;5112774;27;19926;-78
2022/12/18 06:10:33;;;;;;;;;;;;;;;0.88;100.00;101187.53;5094717;28;19911;-77
2022/12/18 06:12:59;;;;;;;;;;;;;;;0.88;100.00;101195.31;5095958;28;19948;-76
2022/12/18 06:15:24;;;;;;;;;;;;;;;0.94;100.00;101192.53;5130669;27;19926;-77
2022/12/18 06:17:50;;;;;;;;;;;;;;;0.98;100.00;101198.50;5115291;28;19918;-78
2022/12/18 06:20:15;;;;;;;;;;;;;;;0.99;100.00;101189.81;5111578;28;19923;-76
2022/12/18 06:22:41;;;;;;;;;;;;;;;1.00;100.00;101201.91;5112942;28;19947;-78
2022/12/18 06:25:06;;;;;;;;;;;;;;;0.99;100.00;101201.06;5113222;28;19916;-79
2022/12/18 06:27:33;;;;;;;;;;;;;;;1.02;100.00;101198.38;5117110;28;19941;-78
2022/12/18 06:29:59;;;;;;;;;;;;;;;1.08;100.00;101205.13;5114399;28;19911;-77
2022/12/18 06:32:24;;;;;;;;;;;;;;;1.10;100.00;101209.41;5131888;27;19915;-78
2022/12/18 06:34:50;;;;;;;;;;;;;;;1.07;100.00;101219.88;5117396;28;19916;-79
2022/12/18 06:37:15;;;;;;;;;;;;;;;1.05;100.00;101216.50;5114733;28;19915;-78
2022/12/18 06:39:40;;;;;;;;;;;;;;;0.91;100.00;101216.00;5111703;28;19915;-79
2022/12/18 06:42:06;;;;;;;;;;;;;;;0.90;100.00;101224.69;5113301;28;19919;-78
2022/12/18 06:44:31;;;;;;;;;;;;;;;0.93;100.00;101222.03;5131622;27;19926;-78
2022/12/18 06:46:57;;;;;;;;;;;;;;;0.89;100.00;101220.38;5114852;28;19924;-78
2022/12/18 06:49:22;;;;;;;;;;;;;;;0.85;100.00;101229.16;5114252;28;19951;-78
2022/12/18 06:51:47;;;;;;;;;;;;;;;0.84;100.00;101227.47;5117225;28;19922;-79
2022/12/18 06:54:13;;;;;;;;;;;;;;;0.85;100.00;101233.50;5119737;28;19937;-81
2022/12/18 06:56:38;;;;;;;;;;;;;;;0.81;100.00;101237.94;5116779;28;19912;-80
2022/12/18 06:59:04;;;;;;;;;;;;;;;0.83;100.00;101244.78;5116471;28;19916;-81
2022/12/18 07:01:29;;;;;;;;;;;;;;;0.87;100.00;101248.19;5116993;28;20004;-78
2022/12/18 07:03:55;;;;;;;;;;;;;;;0.80;100.00;101249.22;5115333;28;19926;-78
2022/12/18 07:06:22;;;;;;;;;;;;;;;0.86;100.00;101251.66;5128343;28;20280;-77
2022/12/18 07:08:48;;;;;;;;;;;;;;;0.91;100.00;101249.78;5112083;28;20282;-76
2022/12/18 07:11:14;;;;;;;;;;;;;;;0.90;100.00;101252.44;5111600;28;19920;-77
2022/12/18 07:13:39;;;;;;;;;;;;;;;0.93;100.00;101258.41;5114985;28;19915;-80
2022/12/18 07:16:09;;;;;;;;;;;;;;;0.93;100.00;101262.75;5115574;28;19920;-78
2022/12/18 07:18:34;;;;;;;;;;;;;;;0.99;100.00;101271.25;5116211;28;20341;-80
2022/12/18 07:21:07;;;;;;;;;;;;;;;0.99;100.00;101271.25;5118019;28;19937;-80
2022/12/18 07:23:33;;;;;;;;;;;;;;;0.99;100.00;101273.00;5116029;28;19984;-73
2022/12/18 07:26:08;;;;;;;;;;;;;;;1.00;100.00;101280.72;5109916;28;20236;-75
2022/12/18 07:28:35;;;;;;;;;;;;;;;1.11;100.00;101283.94;5110545;27;19972;-74
2022/12/18 07:31:04;;;;;;;;;;;;;;;1.02;100.00;101289.34;5110962;28;19916;-78
2022/12/18 07:33:29;;;;;;;;;;;;;;;1.02;100.00;101286.75;5114276;28;20360;-74
2022/12/18 07:35:55;;;;;;;;;;;;;;;1.05;100.00;101302.28;5113529;28;19920;-76
2022/12/18 07:38:20;;;;;;;;;;;;;;;1.07;100.00;101297.88;5113613;28;19916;-73
2022/12/18 07:40:45;;;;;;;;;;;;;;;1.14;100.00;101303.78;5112879;28;19972;-74
2022/12/18 07:43:11;;;;;;;;;;;;;;;1.11;100.00;101304.72;5110935;28;19923;-77
2022/12/18 07:45:37;;;;;;;;;;;;;;;1.16;100.00;101313.25;5111865;28;20010;-73
2022/12/18 07:48:02;;;;;;;;;;;;;;;1.20;100.00;101319.22;5111760;28;19959;-74
2022/12/18 07:50:27;;;;;;;;;;;;;;;1.28;100.00;101321.63;5111530;28;19961;-74
2022/12/18 07:52:53;;;;;;;;;;;;;;;1.28;100.00;101316.41;5113684;28;19985;-74
2022/12/18 07:55:18;;;;;;;;;;;;;;;1.26;100.00;101318.19;5114939;28;19916;-74
2022/12/18 07:57:44;;;;;;;;;;;;;;;1.22;100.00;101326.09;5115347;28;19924;-74
2022/12/18 08:00:09;;;;;;;;;;;;;;;1.23;100.00;101325.19;5114696;28;19965;-75
2022/12/18 08:02:42;;;;;;;;;;;;;;;1.30;100.00;101322.44;5114634;27;20276;-75
2022/12/18 08:05:08;;;;;;;;;;;;;;;1.35;100.00;101333.56;5114084;28;19958;-75
2022/12/18 08:07:33;;;;;;;;;;;;;;;1.39;100.00;101329.97;5115424;27;19944;-74
2022/12/18 08:09:59;;;;;;;;;;;;;;;1.45;100.00;101332.41;5115345;28;19918;-74
2022/12/18 08:12:24;;;;;;;;;;;;;;;1.50;100.00;101333.13;5114610;28;19939;-74
2022/12/18 08:14:50;;;;;;;;;;;;;;;1.56;100.00;101332.97;5113974;28;19920;-75
2022/12/18 08:17:15;;;;;;;;;;;;;;;1.58;100.00;101342.44;5113421;28;19922;-76
2022/12/18 08:19:40;;;;;;;;;;;;;;;1.56;100.00;101343.38;5115155;28;19923;-75
2022/12/18 08:22:06;;;;;;;;;;;;;;;1.58;100.00;101344.19;5114970;28;19911;-77
2022/12/18 08:24:31;;;;;;;;;;;;;;;1.57;100.00;101347.69;5115491;28;19923;-76
2022/12/18 08:26:57;;;;;;;;;;;;;;;1.57;100.00;101347.69;5115763;28;19923;-75
2022/12/18 08:29:22;;;;;;;;;;;;;;;1.60;100.00;101356.25;5114775;28;19920;-76
2022/12/18 08:31:47;;;;;;;;;;;;;;;1.60;100.00;101351.03;5118245;28;19916;-74
2022/12/18 08:34:13;;;;;;;;;;;;;;;1.62;100.00;101358.81;5118443;28;19923;-75
2022/12/18 08:36:38;;;;;;;;;;;;;;;1.65;100.00;101358.72;5119097;28;19923;-75
2022/12/18 08:39:04;;;;;;;;;;;;;;;1.65;100.00;101364.78;5118167;28;19915;-75
2022/12/18 08:41:29;;;;;;;;;;;;;;;1.68;100.00;101366.44;5118713;28;19979;-74
2022/12/18 08:46:40;;;;;;;;;;;;;;;1.78;100.00;101375.69;5119261;28;19962;-74
2022/12/18 08:49:06;;;;;;;;;;;;;;;1.76;100.00;101372.31;5118727;28;19919;-75
2022/12/18 08:51:32;;;;;;;;;;;;;;;1.78;100.00;101378.31;5119107;28;19940;-76
2022/12/18 08:53:57;;;;;;;;;;;;;;;1.85;100.00;101381.59;5119812;28;19947;-75
2022/12/18 08:56:23;;;;;;;;;;;;;;;1.89;100.00;101378.00;5118280;28;19920;-75
2022/12/18 08:58:50;;;;;;;;;;;;;;;1.93;100.00;101372.69;5119237;27;19916;-74
2022/12/18 09:01:16;;;;;;;;;;;;;;;1.93;100.00;101379.63;5118184;28;19923;-74
2022/12/18 09:03:41;;;;;;;;;;;;;;;1.86;100.00;101376.34;5117638;28;19923;-74
2022/12/18 09:06:07;;;;;;;;;;;;;;;1.86;100.00;101378.94;5117652;28;19930;-76
2022/12/18 09:08:32;;;;;;;;;;;;;;;1.85;100.00;101384.19;5118446;28;19916;-77
2022/12/18 09:10:59;;;;;;;;;;;;;;;1.88;100.00;101386.72;5118491;28;19962;-75
2022/12/18 09:13:24;;;;;;;;;;;;;;;1.91;100.00;101387.47;5117430;28;19920;-74
2022/12/18 09:15:52;;;;;;;;;;;;;;;1.98;100.00;101388.16;5118016;28;19915;-74
2022/12/18 09:18:19;;;;;;;;;;;;;;;2.02;100.00;101390.63;5117313;27;20337;-74
2022/12/18 09:20:45;;;;;;;;;;;;;;;1.99;100.00;101395.09;5118034;28;20268;-74
2022/12/18 09:23:10;;;;;;;;;;;;;;;1.98;100.00;101402.03;5150426;27;19922;-74
2022/12/18 09:25:36;;;;;;;;;;;;;;;2.02;100.00;101400.19;5116833;28;19923;-75
2022/12/18 09:28:03;;;;;;;;;;;;;;;2.01;100.00;101399.34;5117653;27;19919;-75
2022/12/18 09:30:28;;;;;;;;;;;;;;;2.04;100.00;101404.47;5116483;27;19919;-74
2022/12/18 09:32:54;;;;;;;;;;;;;;;2.09;100.00;101406.06;5117042;28;19967;-75
2022/12/18 09:35:19;;;;;;;;;;;;;;;2.15;100.00;101400.69;5112909;28;19927;-74
2022/12/18 09:37:45;;;;;;;;;;;;;;;2.23;100.00;101401.34;5115412;28;20002;-74
2022/12/18 09:40:16;;;;;;;99.13;55.40;;;;;;;2.29;100.00;101398.53;5113451;28;19916;-75
2022/12/18 09:42:45;;;;;;;;;;;;;;;2.33;100.00;101394.94;5114088;28;20267;-74
2022/12/18 09:45:14;;;;;;;;;;;;;;;2.40;100.00;101407.75;5113234;28;19915;-76
2022/12/18 09:47:41;;;;;;;;;;;;;;;2.44;100.00;101403.28;5114868;28;20010;-74
2022/12/18 09:50:29;;;;;;;;;;;;;;;2.42;100.00;101408.53;5115028;28;20282;-75
2022/12/18 09:52:57;;;;;;;;;;;;;;;2.45;100.00;101407.59;5113356;28;19916;-74
2022/12/18 09:55:34;;;;;;;;;;;;;;;2.46;100.00;101411.91;5116788;27;20886;-74
2022/12/18 09:58:20;;;;;;;;;;;;;;;2.49;100.00;101411.81;5109348;28;20084;-75
2022/12/18 10:00:45;;;;;;;;;;;;;;;2.51;100.00;101403.94;5116254;27;19941;-75
2022/12/18 10:03:14;;;;;;;;;;;;;;;2.55;100.00;101406.41;5115570;28;19922;-74
2022/12/18 10:05:45;;;;;;;;;;;;;;;2.61;100.00;101401.00;5116269;28;20278;-75
2022/12/18 10:08:20;;;;;;;;;;;;;;;2.67;100.00;101405.19;5115218;28;19915;-73
2022/12/18 10:10:46;;;;;;;;;;;;;;;2.74;100.00;101402.34;5116359;28;20294;-75
2022/12/18 10:13:20;;;;;;;;;;;;;;;2.81;100.00;101397.78;5115944;28;20014;-75
2022/12/18 10:15:52;;;;;;;;;;;;;;;2.88;100.00;101405.38;5131509;27;19919;-75
2022/12/18 10:18:39;;;;;;;;;;;;;;;2.91;100.00;101409.63;5114551;28;20002;-75
2022/12/18 10:21:17;;;;;;;;;;;;;;;2.94;100.00;101413.91;5110314;28;19956;-75
2022/12/18 10:23:51;;;;;;;;;;;;;;;2.96;100.00;101405.09;5111767;28;20410;-75
2022/12/18 10:26:17;;;;;;;;;;;;;;;2.99;100.00;101405.03;5112229;28;20381;-75
2022/12/18 10:28:43;;;;;;;;;;;;;;;3.04;100.00;101399.66;5145878;27;19923;-75
2022/12/18 10:31:16;;;;;;;;;;;;;;;3.06;100.00;101395.25;5112152;28;19916;-75
2022/12/18 10:33:42;;;;;;;;;;;;;;;3.07;100.00;101399.53;5112746;27;20272;-75
2022/12/18 10:36:07;;;;;;;;;;;;;;;3.10;100.00;101395.09;5111862;28;19916;-76
2022/12/18 10:38:33;;;;;;;;;;;;;;;3.14;100.00;101395.81;5111416;28;19977;-75
2022/12/18 10:40:58;;;;;;;;;;;;;;;3.17;100.00;101391.38;5111201;28;19922;-75
2022/12/18 10:43:24;;;;;;;;;;;;;;;3.20;100.00;101385.19;5112242;28;19923;-75
2022/12/18 10:46:07;;;;;;;;;;;;;;;3.21;100.00;101392.09;5112176;28;19916;-75
2022/12/18 10:48:35;;;;;;;;;;;;;;;3.22;100.00;101389.47;5110079;28;19915;-76
2022/12/18 10:51:02;;;;;;;;;;;;;;;3.24;100.00;101397.25;5111847;28;20280;-74
2022/12/18 10:53:29;;;;;;;;;;;;;;;3.25;100.00;101391.94;5145203;27;19920;-74
2022/12/18 10:56:00;;;;;;;;;;;;;;;3.26;100.00;101393.66;5112251;28;19985;-75
2022/12/18 10:58:33;;;;;;;;;;;;;;;3.32;100.00;101395.22;5111959;28;19931;-75
2022/12/18 11:01:12;;;;;;;;;;;;;;;3.35;100.00;101389.91;5112627;28;19926;-75
2022/12/18 11:03:38;;;;;;;;;;;;;;;3.44;100.00;101393.94;5112915;28;20343;-75
2022/12/18 11:06:04;;;;;;;;;;;;;;;3.43;100.00;101398.28;5112279;28;19984;-75
2022/12/18 11:08:29;;;;;;;;;;;;;;;3.46;100.00;101395.59;5112439;28;19938;-75
2022/12/18 11:10:54;;;;;;;;;;;;;;;3.50;100.00;101394.56;5112830;28;19985;-75
2022/12/18 11:13:22;;;;;;;;;;;;;;;3.52;100.00;101392.78;5108539;28;19961;-75
2022/12/18 11:15:48;;;;;;;;;;;;;;;3.54;100.00;101398.78;5112459;28;20284;-75
2022/12/18 11:18:22;;;;;;;;;;;;;;;3.59;100.00;101389.03;5112252;28;19980;-74
2022/12/18 11:20:57;;;;;;;;;;;;;;;3.62;100.00;101394.16;5112188;28;20283;-75
2022/12/18 11:23:23;;;;;;;;;;;;;;;3.64;100.00;101394.97;5108159;28;20687;-74
2022/12/18 11:26:07;;;;;;;;;;;;;;;3.69;100.00;101394.78;5112453;28;20316;-74
2022/12/18 11:28:32;;;;;;;;;;;;;;;3.71;100.00;101393.81;5113148;28;20372;-74
2022/12/18 11:31:12;;;;;;;;;;;;;;;3.77;100.00;101386.69;5116418;28;20880;-75
2022/12/18 11:33:39;;;;;;;;;;;;;;;3.80;100.00;101386.56;5116758;28;19922;-74
2022/12/18 11:36:07;;;;;;;;;;;;;;;3.82;100.00;101382.16;5115473;28;20302;-74
2022/12/18 11:38:36;;;;;;;;;;;;;;;3.84;100.00;101388.16;5115611;28;20319;-75
2022/12/18 11:41:09;;;;;;;;;;;;;;;3.90;100.00;101387.94;5116080;28;19919;-74
2022/12/18 11:43:55;;;;;;;;;;;;;;;3.92;100.00;101380.91;5116065;28;19927;-75
2022/12/18 11:46:36;;;;;;;;;;;;;;;3.98;100.00;101384.13;5111613;28;20260;-74
2022/12/18 11:49:06;;;;;;;;;;;;;;;4.01;100.00;101384.00;5113281;28;19927;-74
2022/12/18 11:51:52;;;;;;;;;;;;;;;4.03;100.00;101378.75;5115539;28;19923;-75
2022/12/18 11:54:17;;;;;;;;;;;;;;;4.04;100.00;101377.84;5106505;28;19915;-75
2022/12/18 11:56:48;;;;;;;;;;;;;;;4.04;100.00;101375.22;5115630;28;19968;-74
2022/12/18 11:59:13;;;;;;;;;;;;;;;4.04;100.00;101370.00;5115178;27;20024;-74
2022/12/18 12:01:53;;;;;;;;;;;;;;;4.08;100.00;101371.56;5115285;28;19959;-75
2022/12/18 12:04:21;;;;;;;;;;;;;;;4.12;100.00;101373.19;5115273;28;20367;-74
2022/12/18 12:07:06;;;;;;;;;;;;;;;4.16;100.00;101369.53;5115353;28;19915;-74
2022/12/18 12:09:52;;;;;;;;;;;;;;;4.17;100.00;101380.84;5112638;28;19999;-74
2022/12/18 12:12:24;;;;;;;;;;;;;;;4.17;100.00;101371.25;5114606;28;19916;-74
2022/12/18 12:14:49;;;;;;;;;;;;;;;4.17;100.00;101371.25;5115124;28;19916;-75
2022/12/18 12:17:26;;;;;;;;;;;;;;;4.16;100.00;101374.75;5114732;28;19924;-74
2022/12/18 12:20:03;;;;;;;;;;;;;;;4.13;100.00;101370.50;5111005;28;19916;-75
2022/12/18 12:22:48;;;;;;;;;;;;;;;4.12;100.00;101370.56;5111702;28;20280;-75
2022/12/18 12:25:13;;;;;;;;;;;;;;;4.12;100.00;101373.19;5114142;28;19915;-74
2022/12/18 12:27:57;;;;;;;;;;;;;;;4.11;100.00;101361.03;5114622;28;20337;-73
2022/12/18 12:30:45;;;;;;;;;;;;;;;4.09;100.00;101353.25;5109153;28;19929;-73
2022/12/18 12:33:23;;;;;;;;;;;;;;;4.12;100.00;101349.66;5105117;28;20287;-74
2022/12/18 12:36:10;;;;;;;;;;;;;;;4.17;100.00;101358.19;5114389;28;19919;-73
2022/12/18 12:38:45;;;;;;;;;;;;;;;4.27;100.00;101346.47;5112220;28;19926;-76